createdAt,value
2017-08-21T00:00:11.395Z,14.44
2017-08-21T00:05:07.043Z,14.48
2017-08-21T00:10:02.918Z,14.53
2017-08-21T00:15:00.165Z,14.40
2017-08-21T00:19:55.397Z,14.45
2017-08-21T00:24:51.198Z,14.28
2017-08-21T00:29:48.402Z,14.53
2017-08-21T00:34:44.044Z,14.33
2017-08-21T00:39:39.604Z,14.28
2017-08-21T00:44:35.645Z,14.26
2017-08-21T00:49:31.518Z,14.17
2017-08-21T00:54:27.633Z,14.30
2017-08-21T00:59:23.542Z,14.20
2017-08-21T01:04:19.338Z,14.12
2017-08-21T01:09:15.046Z,13.93
2017-08-21T01:14:10.787Z,14.08
2017-08-21T01:19:06.443Z,13.97
2017-08-21T01:24:02.297Z,13.89
2017-08-21T01:28:58.041Z,13.81
2017-08-21T01:33:53.907Z,13.72
2017-08-21T01:38:49.873Z,13.77
2017-08-21T01:43:45.609Z,13.85
2017-08-21T01:48:43.310Z,13.78
2017-08-21T01:53:38.854Z,13.85
2017-08-21T01:58:34.624Z,13.71
2017-08-21T02:03:30.593Z,13.74
2017-08-21T02:08:26.563Z,13.74
2017-08-21T02:13:22.407Z,13.70
2017-08-21T02:18:18.200Z,13.79
2017-08-21T02:23:13.980Z,13.81
2017-08-21T02:28:09.761Z,13.87
2017-08-21T02:33:05.702Z,13.78
2017-08-21T02:38:01.262Z,13.63
2017-08-21T02:42:57.067Z,13.71
2017-08-21T02:47:52.959Z,13.62
2017-08-21T02:52:48.774Z,13.72
2017-08-21T02:57:44.556Z,13.53
2017-08-21T03:02:41.319Z,13.49
2017-08-21T03:07:37.920Z,13.59
2017-08-21T03:12:33.686Z,13.20
2017-08-21T03:17:29.521Z,13.33
2017-08-21T03:22:25.680Z,13.46
2017-08-21T03:27:21.507Z,13.39
2017-08-21T03:32:17.376Z,13.27
2017-08-21T03:37:13.936Z,13.44
2017-08-21T03:42:09.865Z,13.37
2017-08-21T03:47:05.650Z,13.28
2017-08-21T03:52:01.413Z,13.37
2017-08-21T03:56:58.290Z,13.39
2017-08-21T04:01:54.129Z,13.20
2017-08-21T04:06:49.528Z,13.28
2017-08-21T04:11:46.974Z,13.28
2017-08-21T04:16:42.327Z,13.20
2017-08-21T04:21:38.076Z,13.30
2017-08-21T04:26:33.813Z,13.16
2017-08-21T04:31:29.692Z,13.20
2017-08-21T04:36:25.126Z,13.16
2017-08-21T04:41:20.940Z,13.25
2017-08-21T04:46:17.329Z,13.25
2017-08-21T04:51:13.334Z,13.12
2017-08-21T04:56:09.296Z,13.27
2017-08-21T05:01:06.104Z,13.27
2017-08-21T05:06:01.590Z,13.22
2017-08-21T05:10:57.604Z,13.16
2017-08-21T05:15:53.529Z,13.18
2017-08-21T05:20:49.447Z,13.37
2017-08-21T05:25:45.499Z,13.46
2017-08-21T05:30:41.470Z,13.52
2017-08-21T05:35:38.477Z,13.53
2017-08-21T05:40:34.303Z,13.77
2017-08-21T05:45:30.163Z,13.67
2017-08-21T05:50:26.252Z,13.79
2017-08-21T05:55:22.954Z,13.83
2017-08-21T06:00:18.570Z,14.00
2017-08-21T06:05:14.512Z,14.00
2017-08-21T06:10:10.329Z,14.10
2017-08-21T06:15:06.130Z,14.04
2017-08-21T06:20:01.790Z,14.33
2017-08-21T06:24:58.085Z,14.26
2017-08-21T06:29:54.929Z,14.54
2017-08-21T06:34:52.027Z,14.60
2017-08-21T06:39:48.755Z,14.62
2017-08-21T06:44:45.603Z,14.72
2017-08-21T06:49:41.532Z,14.82
2017-08-21T06:54:37.298Z,14.89
2017-08-21T06:59:33.292Z,14.92
2017-08-21T07:04:29.236Z,15.19
2017-08-21T07:09:25.140Z,15.19
2017-08-21T07:14:21.192Z,15.36
2017-08-21T07:19:19.093Z,15.52
2017-08-21T07:24:15.301Z,15.64
2017-08-21T07:29:11.251Z,15.86
2017-08-21T07:34:07.219Z,16.26
2017-08-21T07:39:04.249Z,16.83
2017-08-21T07:44:00.887Z,16.90
2017-08-21T07:48:57.076Z,17.33
2017-08-21T07:53:54.247Z,17.45
2017-08-21T07:58:51.269Z,17.51
2017-08-21T08:03:46.763Z,17.78
2017-08-21T08:08:44.074Z,18.47
2017-08-21T08:13:42.244Z,19.37
2017-08-21T08:18:39.032Z,19.58
2017-08-21T08:23:36.661Z,19.96
2017-08-21T08:28:32.959Z,20.06
2017-08-21T08:33:30.455Z,20.62
2017-08-21T08:38:26.265Z,20.67
2017-08-21T08:43:21.265Z,20.04
2017-08-21T08:48:17.570Z,19.36
2017-08-21T08:53:12.442Z,19.15
2017-08-21T08:58:08.331Z,18.93
2017-08-21T09:03:04.217Z,18.90
2017-08-21T09:08:01.212Z,18.89
2017-08-21T09:12:56.854Z,18.74
2017-08-21T09:17:52.857Z,18.88
2017-08-21T09:22:49.737Z,19.04
2017-08-21T09:27:45.497Z,19.16
2017-08-21T09:32:41.373Z,19.24
2017-08-21T09:37:37.392Z,19.14
2017-08-21T09:42:33.505Z,19.62
2017-08-21T09:47:30.355Z,19.62
2017-08-21T09:52:28.014Z,20.03
2017-08-21T09:57:24.738Z,20.29
2017-08-21T10:02:21.446Z,20.97
2017-08-21T10:07:18.837Z,21.24
2017-08-21T10:12:15.203Z,20.70
2017-08-21T10:17:13.143Z,20.95
2017-08-21T10:22:10.052Z,21.32
2017-08-21T10:27:07.503Z,21.93
2017-08-21T10:32:06.009Z,22.39
2017-08-21T10:37:02.562Z,21.87
2017-08-21T10:41:58.979Z,21.85
2017-08-21T10:46:55.080Z,21.73
2017-08-21T10:51:49.988Z,21.48
2017-08-21T10:56:47.781Z,21.77
2017-08-21T11:01:42.074Z,21.69
2017-08-21T11:06:39.930Z,22.08
2017-08-21T11:11:36.617Z,22.30
2017-08-21T11:16:31.755Z,22.14
2017-08-21T11:21:28.604Z,21.83
2017-08-21T11:26:25.911Z,22.18
2017-08-21T11:31:24.363Z,22.17
2017-08-21T11:36:19.776Z,22.20
2017-08-21T11:41:14.573Z,22.00
2017-08-21T11:46:10.493Z,21.57
2017-08-21T11:51:05.692Z,21.03
2017-08-21T11:56:02.115Z,20.82
2017-08-21T12:00:57.006Z,20.82
2017-08-21T12:05:56.849Z,21.35
2017-08-21T12:10:52.243Z,21.50
2017-08-21T12:15:48.688Z,21.62
2017-08-21T12:20:44.160Z,21.45
2017-08-21T12:25:40.726Z,21.58
2017-08-21T12:30:35.612Z,21.06
2017-08-21T12:35:30.883Z,20.93
2017-08-21T12:40:26.200Z,20.72
2017-08-21T12:45:21.839Z,20.65
2017-08-21T12:50:18.909Z,20.62
2017-08-21T12:55:15.801Z,21.06
2017-08-21T13:00:12.830Z,21.35
2017-08-21T13:05:08.257Z,21.25
2017-08-21T13:10:03.937Z,21.06
2017-08-21T13:15:00.254Z,21.18
2017-08-21T13:19:56.250Z,21.43
2017-08-21T13:24:52.268Z,21.35
2017-08-21T13:29:48.024Z,21.15
2017-08-21T13:34:43.906Z,21.11
2017-08-21T13:39:39.944Z,21.24
2017-08-21T13:44:35.837Z,21.45
2017-08-21T13:49:31.861Z,21.50
2017-08-21T13:54:28.378Z,21.57
2017-08-21T13:59:24.379Z,21.66
2017-08-21T14:04:20.413Z,21.45
2017-08-21T14:09:16.674Z,21.54
2017-08-21T14:14:12.370Z,21.73
2017-08-21T14:19:09.513Z,21.62
2017-08-21T14:24:05.958Z,21.50
2017-08-21T14:29:01.482Z,21.05
2017-08-21T14:33:58.764Z,21.17
2017-08-21T14:38:54.736Z,21.42
2017-08-21T14:43:50.786Z,21.48
2017-08-21T14:48:47.146Z,21.48
2017-08-21T14:53:42.942Z,21.46
2017-08-21T14:58:38.847Z,21.21
2017-08-21T15:03:34.305Z,20.93
2017-08-21T15:08:29.939Z,20.90
2017-08-21T15:13:25.667Z,20.85
2017-08-21T15:18:21.503Z,20.82
2017-08-21T15:23:18.838Z,20.78
2017-08-21T15:28:15.719Z,20.82
2017-08-21T15:33:11.359Z,20.78
2017-08-21T15:38:07.164Z,20.70
2017-08-21T15:43:02.894Z,20.82
2017-08-21T15:48:00.179Z,20.78
2017-08-21T15:52:55.901Z,20.72
2017-08-21T15:57:51.729Z,20.70
2017-08-21T16:02:47.539Z,20.70
2017-08-21T16:07:43.359Z,20.75
2017-08-21T16:12:39.164Z,20.74
2017-08-21T16:17:35.574Z,20.67
2017-08-21T16:22:32.402Z,20.60
2017-08-21T16:27:28.972Z,20.69
2017-08-21T16:32:24.744Z,20.55
2017-08-21T16:37:21.672Z,20.74
2017-08-21T16:42:17.240Z,20.66
2017-08-21T16:47:13.711Z,20.62
2017-08-21T16:52:09.633Z,20.72
2017-08-21T16:57:06.114Z,20.63
2017-08-21T17:02:02.948Z,20.52
2017-08-21T17:06:58.263Z,20.47
2017-08-21T17:11:55.045Z,20.28
2017-08-21T17:16:50.447Z,20.24
2017-08-21T17:21:47.258Z,20.19
2017-08-21T17:26:42.808Z,20.07
2017-08-21T17:31:39.078Z,19.95
2017-08-21T17:36:34.883Z,20.00
2017-08-21T17:41:30.891Z,19.95
2017-08-21T17:46:28.186Z,19.88
2017-08-21T17:51:23.422Z,19.74
2017-08-21T17:56:20.858Z,19.67
2017-08-21T18:01:16.561Z,19.64
2017-08-21T18:06:12.258Z,19.52
2017-08-21T18:11:08.404Z,19.29
2017-08-21T18:16:05.370Z,19.22
2017-08-21T18:21:00.786Z,19.21
2017-08-21T18:25:56.566Z,18.96
2017-08-21T18:30:53.596Z,18.95
2017-08-21T18:35:50.858Z,18.70
2017-08-21T18:40:47.157Z,18.56
2017-08-21T18:45:43.013Z,18.38
2017-08-21T18:50:39.858Z,18.29
2017-08-21T18:55:35.320Z,18.15
2017-08-21T19:00:31.198Z,18.10
2017-08-21T19:05:28.194Z,18.03
2017-08-21T19:10:23.820Z,18.01
2017-08-21T19:15:19.823Z,17.87
2017-08-21T19:20:15.381Z,17.72
2017-08-21T19:25:11.684Z,17.83
2017-08-21T19:30:08.295Z,17.64
2017-08-21T19:35:03.738Z,17.46
2017-08-21T19:40:00.797Z,17.30
2017-08-21T19:44:56.478Z,17.27
2017-08-21T19:49:54.561Z,17.14
2017-08-21T19:54:50.873Z,17.08
2017-08-21T19:59:46.790Z,17.08
2017-08-21T20:04:42.742Z,17.11
2017-08-21T20:09:38.399Z,17.09
2017-08-21T20:14:35.559Z,17.09
2017-08-21T20:19:30.954Z,17.05
2017-08-21T20:24:26.742Z,16.93
2017-08-21T20:29:22.611Z,16.83
2017-08-21T20:34:18.692Z,16.87
2017-08-21T20:39:15.465Z,16.78
2017-08-21T20:44:11.153Z,16.68
2017-08-21T20:49:06.962Z,16.68
2017-08-21T20:54:02.687Z,16.57
2017-08-21T20:58:59.899Z,16.69
2017-08-21T21:03:55.541Z,16.61
2017-08-21T21:08:52.473Z,16.53
2017-08-21T21:13:48.930Z,16.66
2017-08-21T21:18:45.659Z,16.53
2017-08-21T21:23:41.109Z,16.35
2017-08-21T21:28:38.269Z,16.05
2017-08-21T21:33:33.771Z,15.97
2017-08-21T21:38:29.638Z,15.97
2017-08-21T21:43:25.547Z,15.91
2017-08-21T21:48:22.387Z,15.91
2017-08-21T21:53:18.944Z,15.94
2017-08-21T21:58:14.446Z,15.92
2017-08-21T22:03:10.220Z,15.91
2017-08-21T22:08:06.515Z,15.90
2017-08-21T22:13:02.329Z,15.83
2017-08-21T22:17:58.049Z,15.80
2017-08-21T22:22:54.175Z,15.76
2017-08-21T22:27:50.098Z,15.70
2017-08-21T22:32:45.799Z,15.36
2017-08-21T22:37:42.163Z,15.35
2017-08-21T22:42:37.993Z,15.29
2017-08-21T22:47:33.663Z,15.42
2017-08-21T22:52:30.151Z,15.39
2017-08-21T22:57:26.801Z,15.31
2017-08-21T23:02:23.693Z,15.28
2017-08-21T23:07:19.259Z,15.29
2017-08-21T23:12:15.522Z,15.55
2017-08-21T23:17:12.107Z,15.35
2017-08-21T23:22:08.278Z,15.04
2017-08-21T23:27:04.073Z,14.94
2017-08-21T23:31:59.906Z,14.85
2017-08-21T23:36:55.484Z,14.91
2017-08-21T23:41:51.870Z,14.97
2017-08-21T23:46:48.093Z,14.96
2017-08-21T23:51:43.780Z,14.68
2017-08-21T23:56:41.689Z,14.73
